sensor_id;sensor_type;location;lat;lon;timestamp;pressure;altitude;pressure_sealevel;temperature;humidity
16777;BME280;8505;49.456;8.164;2022-11-13T00:01:07;100909.81;;;5.87;91.39
16777;BME280;8505;49.456;8.164;2022-11-13T00:03:34;100904.91;;;5.58;91.93
16777;BME280;8505;49.456;8.164;2022-11-13T00:06:03;100908.09;;;5.75;91.85
16777;BME280;8505;49.456;8.164;2022-11-13T00:08:31;100905.75;;;5.59;91.38
16777;BME280;8505;49.456;8.164;2022-11-13T00:11:01;100907.09;;;5.28;91.93
16777;BME280;8505;49.456;8.164;2022-11-13T00:13:29;100909.19;;;5.36;92.70
16777;BME280;8505;49.456;8.164;2022-11-13T00:15:58;100905.94;;;5.32;92.22
16777;BME280;8505;49.456;8.164;2022-11-13T00:18:26;100896.19;;;5.21;92.67
16777;BME280;8505;49.456;8.164;2022-11-13T00:20:55;100899.06;;;5.06;93.62
16777;BME280;8505;49.456;8.164;2022-11-13T00:23:23;100898.31;;;5.16;93.74
16777;BME280;8505;49.456;8.164;2022-11-13T00:25:51;100896.03;;;5.12;93.08
16777;BME280;8505;49.456;8.164;2022-11-13T00:28:20;100899.22;;;5.28;93.52
16777;BME280;8505;49.456;8.164;2022-11-13T00:30:47;100901.34;;;5.23;92.62
16777;BME280;8505;49.456;8.164;2022-11-13T00:33:15;100903.38;;;4.94;92.26
16777;BME280;8505;49.456;8.164;2022-11-13T00:36:03;100909.88;;;4.76;93.32
16777;BME280;8505;49.456;8.164;2022-11-13T00:38:31;100902.56;;;4.94;93.21
16777;BME280;8505;49.456;8.164;2022-11-13T00:40:59;100907.81;;;4.94;93.10
16777;BME280;8505;49.456;8.164;2022-11-13T00:43:28;100902.13;;;4.87;93.47
16777;BME280;8505;49.456;8.164;2022-11-13T00:45:56;100891.31;;;5.04;93.41
16777;BME280;8505;49.456;8.164;2022-11-13T00:48:24;100888.25;;;5.10;93.17
16777;BME280;8505;49.456;8.164;2022-11-13T00:50:52;100889.50;;;5.17;93.65
16777;BME280;8505;49.456;8.164;2022-11-13T00:53:20;100892.16;;;4.92;93.02
16777;BME280;8505;49.456;8.164;2022-11-13T00:55:47;100895.50;;;4.94;93.33
16777;BME280;8505;49.456;8.164;2022-11-13T00:58:16;100897.31;;;4.94;93.37
16777;BME280;8505;49.456;8.164;2022-11-13T01:00:46;100899.53;;;4.87;93.43
16777;BME280;8505;49.456;8.164;2022-11-13T01:03:16;100887.75;;;4.93;93.62
16777;BME280;8505;49.456;8.164;2022-11-13T01:05:45;100890.91;;;4.85;93.94
16777;BME280;8505;49.456;8.164;2022-11-13T01:08:14;100902.16;;;4.74;93.84
16777;BME280;8505;49.456;8.164;2022-11-13T01:10:44;100897.09;;;4.71;94.16
16777;BME280;8505;49.456;8.164;2022-11-13T01:13:19;100895.72;;;4.91;94.49
16777;BME280;8505;49.456;8.164;2022-11-13T01:15:48;100899.81;;;4.57;94.80
16777;BME280;8505;49.456;8.164;2022-11-13T01:18:15;100894.28;;;4.87;94.61
16777;BME280;8505;49.456;8.164;2022-11-13T01:20:43;100895.31;;;4.84;94.25
16777;BME280;8505;49.456;8.164;2022-11-13T01:23:11;100892.16;;;4.79;94.53
16777;BME280;8505;49.456;8.164;2022-11-13T01:25:38;100884.91;;;4.83;94.36
16777;BME280;8505;49.456;8.164;2022-11-13T01:28:06;100890.16;;;4.83;94.54
16777;BME280;8505;49.456;8.164;2022-11-13T01:30:33;100879.25;;;4.76;95.33
16777;BME280;8505;49.456;8.164;2022-11-13T01:33:02;100876.22;;;4.57;94.88
16777;BME280;8505;49.456;8.164;2022-11-13T01:35:30;100874.97;;;4.37;95.87
16777;BME280;8505;49.456;8.164;2022-11-13T01:37:58;100881.56;;;4.43;95.81
16777;BME280;8505;49.456;8.164;2022-11-13T01:40:26;100881.75;;;4.40;96.66
16777;BME280;8505;49.456;8.164;2022-11-13T01:42:54;100876.75;;;4.37;96.81
16777;BME280;8505;49.456;8.164;2022-11-13T01:48:24;100875.06;;;4.36;96.69
16777;BME280;8505;49.456;8.164;2022-11-13T01:50:55;100870.66;;;4.36;96.90
16777;BME280;8505;49.456;8.164;2022-11-13T01:53:24;100867.19;;;4.36;96.96
16777;BME280;8505;49.456;8.164;2022-11-13T01:55:53;100865.09;;;4.28;96.50
16777;BME280;8505;49.456;8.164;2022-11-13T01:58:20;100859.81;;;4.03;97.18
16777;BME280;8505;49.456;8.164;2022-11-13T02:00:48;100862.94;;;4.08;97.31
16777;BME280;8505;49.456;8.164;2022-11-13T02:03:15;100862.84;;;4.10;97.86
16777;BME280;8505;49.456;8.164;2022-11-13T02:05:45;100854.47;;;4.04;97.48
16777;BME280;8505;49.456;8.164;2022-11-13T02:08:12;100858.78;;;4.05;97.29
16777;BME280;8505;49.456;8.164;2022-11-13T02:10:40;100852.28;;;4.11;97.38
16777;BME280;8505;49.456;8.164;2022-11-13T02:13:09;100843.97;;;4.04;96.75
16777;BME280;8505;49.456;8.164;2022-11-13T02:15:38;100843.56;;;4.11;97.54
16777;BME280;8505;49.456;8.164;2022-11-13T02:18:06;100843.53;;;3.85;96.93
16777;BME280;8505;49.456;8.164;2022-11-13T02:20:39;100835.56;;;3.87;96.95
16777;BME280;8505;49.456;8.164;2022-11-13T02:23:16;100835.56;;;3.87;97.10
16777;BME280;8505;49.456;8.164;2022-11-13T02:25:51;100821.81;;;3.83;97.02
16777;BME280;8505;49.456;8.164;2022-11-13T02:28:19;100823.59;;;3.70;97.04
16777;BME280;8505;49.456;8.164;2022-11-13T02:30:47;100818.19;;;3.59;97.29
16777;BME280;8505;49.456;8.164;2022-11-13T02:33:23;100813.44;;;3.78;97.03
16777;BME280;8505;49.456;8.164;2022-11-13T02:35:52;100806.19;;;3.69;96.78
16777;BME280;8505;49.456;8.164;2022-11-13T02:38:20;100814.16;;;3.67;96.92
16777;BME280;8505;49.456;8.164;2022-11-13T02:40:49;100812.44;;;3.54;96.81
16777;BME280;8505;49.456;8.164;2022-11-13T02:43:17;100815.19;;;3.65;96.43
16777;BME280;8505;49.456;8.164;2022-11-13T02:45:45;100810.66;;;3.54;96.47
16777;BME280;8505;49.456;8.164;2022-11-13T02:48:12;100802.34;;;3.48;96.15
16777;BME280;8505;49.456;8.164;2022-11-13T02:50:40;100810.91;;;3.64;96.45
16777;BME280;8505;49.456;8.164;2022-11-13T02:53:08;100800.13;;;3.42;95.91
16777;BME280;8505;49.456;8.164;2022-11-13T02:55:36;100800.88;;;3.44;95.83
16777;BME280;8505;49.456;8.164;2022-11-13T02:58:05;100799.34;;;3.54;95.32
16777;BME280;8505;49.456;8.164;2022-11-13T03:00:33;100796.31;;;3.60;95.19
16777;BME280;8505;49.456;8.164;2022-11-13T03:03:00;100802.00;;;3.66;95.20
16777;BME280;8505;49.456;8.164;2022-11-13T03:05:28;100792.16;;;3.70;94.87
16777;BME280;8505;49.456;8.164;2022-11-13T03:07:56;100796.28;;;3.47;94.83
16777;BME280;8505;49.456;8.164;2022-11-13T03:10:24;100802.25;;;3.49;95.44
16777;BME280;8505;49.456;8.164;2022-11-13T03:12:51;100797.78;;;3.51;94.71
16777;BME280;8505;49.456;8.164;2022-11-13T03:15:21;100792.41;;;3.53;94.72
16777;BME280;8505;49.456;8.164;2022-11-13T03:17:49;100791.66;;;3.38;95.48
16777;BME280;8505;49.456;8.164;2022-11-13T03:20:16;100787.31;;;3.51;94.94
16777;BME280;8505;49.456;8.164;2022-11-13T03:22:44;100783.09;;;3.49;94.83
16777;BME280;8505;49.456;8.164;2022-11-13T03:25:12;100783.34;;;3.32;95.02
16777;BME280;8505;49.456;8.164;2022-11-13T03:27:39;100783.81;;;3.38;95.49
16777;BME280;8505;49.456;8.164;2022-11-13T03:30:08;100787.03;;;3.42;95.35
16777;BME280;8505;49.456;8.164;2022-11-13T03:32:37;100784.38;;;3.29;95.75
16777;BME280;8505;49.456;8.164;2022-11-13T03:35:06;100785.88;;;3.33;95.52
16777;BME280;8505;49.456;8.164;2022-11-13T03:37:34;100783.97;;;3.35;95.41
16777;BME280;8505;49.456;8.164;2022-11-13T03:40:02;100780.66;;;3.33;95.55
16777;BME280;8505;49.456;8.164;2022-11-13T03:42:30;100778.69;;;3.22;95.51
16777;BME280;8505;49.456;8.164;2022-11-13T03:44:58;100774.31;;;3.23;95.95
16777;BME280;8505;49.456;8.164;2022-11-13T03:47:25;100776.97;;;3.36;95.87
16777;BME280;8505;49.456;8.164;2022-11-13T03:49:54;100776.97;;;3.36;95.59
16777;BME280;8505;49.456;8.164;2022-11-13T03:52:22;100770.94;;;3.21;95.47
16777;BME280;8505;49.456;8.164;2022-11-13T03:54:49;100772.69;;;3.08;96.01
16777;BME280;8505;49.456;8.164;2022-11-13T03:57:17;100764.09;;;3.06;96.12
16777;BME280;8505;49.456;8.164;2022-11-13T03:59:45;100764.53;;;3.12;95.91
16777;BME280;8505;49.456;8.164;2022-11-13T04:02:13;100770.72;;;3.11;95.79
16777;BME280;8505;49.456;8.164;2022-11-13T04:04:40;100763.75;;;3.24;95.24
16777;BME280;8505;49.456;8.164;2022-11-13T04:07:09;100768.69;;;3.29;95.25
16777;BME280;8505;49.456;8.164;2022-11-13T04:09:37;100760.28;;;3.24;95.49
16777;BME280;8505;49.456;8.164;2022-11-13T04:12:05;100763.25;;;3.05;95.36
16777;BME280;8505;49.456;8.164;2022-11-13T04:14:33;100757.84;;;3.08;95.81
16777;BME280;8505;49.456;8.164;2022-11-13T04:17:00;100756.88;;;3.09;95.44
16777;BME280;8505;49.456;8.164;2022-11-13T04:19:28;100757.50;;;2.86;96.25
16777;BME280;8505;49.456;8.164;2022-11-13T04:21:56;100761.81;;;2.87;96.34
16777;BME280;8505;49.456;8.164;2022-11-13T04:24:24;100761.31;;;3.21;95.30
16777;BME280;8505;49.456;8.164;2022-11-13T04:26:52;100757.31;;;3.16;94.91
16777;BME280;8505;49.456;8.164;2022-11-13T04:29:20;100754.59;;;2.91;95.21
16777;BME280;8505;49.456;8.164;2022-11-13T04:31:47;100755.66;;;2.88;95.27
16777;BME280;8505;49.456;8.164;2022-11-13T04:34:15;100749.50;;;2.75;95.91
16777;BME280;8505;49.456;8.164;2022-11-13T04:36:42;100741.47;;;2.78;96.48
16777;BME280;8505;49.456;8.164;2022-11-13T04:39:10;100740.69;;;2.90;95.71
16777;BME280;8505;49.456;8.164;2022-11-13T04:41:39;100733.22;;;2.84;95.93
16777;BME280;8505;49.456;8.164;2022-11-13T04:44:36;100731.38;;;2.72;96.35
16777;BME280;8505;49.456;8.164;2022-11-13T04:47:03;100723.94;;;2.66;96.13
16777;BME280;8505;49.456;8.164;2022-11-13T04:49:31;100727.50;;;2.65;96.47
16777;BME280;8505;49.456;8.164;2022-11-13T04:52:00;100724.31;;;2.60;96.73
16777;BME280;8505;49.456;8.164;2022-11-13T04:54:28;100725.53;;;2.68;96.62
16777;BME280;8505;49.456;8.164;2022-11-13T04:56:56;100733.56;;;2.65;96.68
16777;BME280;8505;49.456;8.164;2022-11-13T04:59:24;100725.38;;;2.84;96.13
16777;BME280;8505;49.456;8.164;2022-11-13T05:01:52;100720.66;;;2.76;96.55
16777;BME280;8505;49.456;8.164;2022-11-13T05:04:21;100722.34;;;2.77;95.72
16777;BME280;8505;49.456;8.164;2022-11-13T05:06:51;100718.91;;;2.63;96.05
16777;BME280;8505;49.456;8.164;2022-11-13T05:09:19;100712.84;;;2.48;96.63
16777;BME280;8505;49.456;8.164;2022-11-13T05:11:46;100712.38;;;2.56;96.59
16777;BME280;8505;49.456;8.164;2022-11-13T05:14:15;100708.44;;;2.63;96.68
16777;BME280;8505;49.456;8.164;2022-11-13T05:16:43;100706.59;;;2.65;96.04
16777;BME280;8505;49.456;8.164;2022-11-13T05:19:11;100699.84;;;2.61;96.09
16777;BME280;8505;49.456;8.164;2022-11-13T05:21:38;100700.97;;;2.71;95.98
16777;BME280;8505;49.456;8.164;2022-11-13T05:24:08;100694.75;;;2.59;95.63
16777;BME280;8505;49.456;8.164;2022-11-13T05:26:37;100697.16;;;2.62;96.16
16777;BME280;8505;49.456;8.164;2022-11-13T05:29:05;100693.06;;;2.58;95.73
16777;BME280;8505;49.456;8.164;2022-11-13T05:31:34;100695.84;;;2.55;95.87
16777;BME280;8505;49.456;8.164;2022-11-13T05:34:02;100690.16;;;2.49;96.19
16777;BME280;8505;49.456;8.164;2022-11-13T05:36:32;100688.84;;;2.56;96.25
16777;BME280;8505;49.456;8.164;2022-11-13T05:39:00;100686.25;;;2.41;95.99
16777;BME280;8505;49.456;8.164;2022-11-13T05:41:28;100686.84;;;2.32;96.50
16777;BME280;8505;49.456;8.164;2022-11-13T05:43:56;100690.59;;;2.28;96.91
16777;BME280;8505;49.456;8.164;2022-11-13T05:46:27;100681.25;;;2.38;97.09
16777;BME280;8505;49.456;8.164;2022-11-13T05:48:58;100680.94;;;2.43;96.46
16777;BME280;8505;49.456;8.164;2022-11-13T05:51:28;100682.09;;;2.39;96.25
16777;BME280;8505;49.456;8.164;2022-11-13T05:53:57;100686.38;;;2.40;95.85
16777;BME280;8505;49.456;8.164;2022-11-13T05:56:26;100669.31;;;2.34;96.25
16777;BME280;8505;49.456;8.164;2022-11-13T05:58:55;100669.97;;;2.24;96.61
16777;BME280;8505;49.456;8.164;2022-11-13T06:01:24;100665.66;;;2.23;96.28
16777;BME280;8505;49.456;8.164;2022-11-13T06:03:54;100661.31;;;2.09;96.66
16777;BME280;8505;49.456;8.164;2022-11-13T06:06:24;100662.78;;;2.13;96.77
16777;BME280;8505;49.456;8.164;2022-11-13T06:08:54;100657.56;;;2.13;96.61
16777;BME280;8505;49.456;8.164;2022-11-13T06:11:24;100661.19;;;2.11;96.09
16777;BME280;8505;49.456;8.164;2022-11-13T06:13:53;100658.50;;;2.12;96.39
16777;BME280;8505;49.456;8.164;2022-11-13T06:16:23;100665.03;;;2.19;96.23
16777;BME280;8505;49.456;8.164;2022-11-13T06:18:54;100659.63;;;2.08;95.76
16777;BME280;8505;49.456;8.164;2022-11-13T06:21:26;100650.66;;;2.12;95.58
16777;BME280;8505;49.456;8.164;2022-11-13T06:23:55;100644.97;;;2.06;95.89
16777;BME280;8505;49.456;8.164;2022-11-13T06:26:24;100642.19;;;2.09;96.07
16777;BME280;8505;49.456;8.164;2022-11-13T06:28:53;100647.34;;;1.96;96.44
16777;BME280;8505;49.456;8.164;2022-11-13T06:31:23;100641.91;;;1.99;95.98
16777;BME280;8505;49.456;8.164;2022-11-13T06:33:52;100645.72;;;1.93;96.79
16777;BME280;8505;49.456;8.164;2022-11-13T06:36:21;100654.78;;;1.74;96.49
16777;BME280;8505;49.456;8.164;2022-11-13T06:38:51;100645.81;;;1.92;96.52
16777;BME280;8505;49.456;8.164;2022-11-13T06:41:21;100641.34;;;1.80;96.38
16777;BME280;8505;49.456;8.164;2022-11-13T06:43:49;100641.56;;;1.91;96.29
16777;BME280;8505;49.456;8.164;2022-11-13T06:46:19;100636.13;;;1.80;96.41
16777;BME280;8505;49.456;8.164;2022-11-13T06:48:47;100633.91;;;1.88;96.32
16777;BME280;8505;49.456;8.164;2022-11-13T06:51:17;100628.13;;;1.83;96.56
16777;BME280;8505;49.456;8.164;2022-11-13T06:53:45;100631.00;;;1.92;96.24
16777;BME280;8505;49.456;8.164;2022-11-13T06:56:16;100633.50;;;1.80;96.59
16777;BME280;8505;49.456;8.164;2022-11-13T06:58:44;100621.78;;;1.87;96.32
16777;BME280;8505;49.456;8.164;2022-11-13T07:01:13;100619.06;;;1.88;96.16
16777;BME280;8505;49.456;8.164;2022-11-13T07:03:41;100622.31;;;1.92;96.27
16777;BME280;8505;49.456;8.164;2022-11-13T07:06:11;100625.22;;;1.87;96.30
16777;BME280;8505;49.456;8.164;2022-11-13T07:08:40;100614.69;;;1.89;96.73
16777;BME280;8505;49.456;8.164;2022-11-13T07:11:09;100613.09;;;1.86;96.70
16777;BME280;8505;49.456;8.164;2022-11-13T07:13:39;100613.38;;;1.82;96.76
16777;BME280;8505;49.456;8.164;2022-11-13T07:16:08;100616.00;;;1.96;96.52
16777;BME280;8505;49.456;8.164;2022-11-13T07:18:43;100611.69;;;1.81;96.69
16777;BME280;8505;49.456;8.164;2022-11-13T07:21:11;100605.84;;;1.77;96.90
16777;BME280;8505;49.456;8.164;2022-11-13T07:23:39;100610.47;;;1.86;96.87
16777;BME280;8505;49.456;8.164;2022-11-13T07:26:09;100616.47;;;1.88;97.04
16777;BME280;8505;49.456;8.164;2022-11-13T07:28:38;100622.31;;;1.92;96.72
16777;BME280;8505;49.456;8.164;2022-11-13T07:31:06;100610.00;;;1.94;96.82
16777;BME280;8505;49.456;8.164;2022-11-13T07:33:34;100611.22;;;2.02;96.75
16777;BME280;8505;49.456;8.164;2022-11-13T07:36:02;100612.91;;;2.03;96.76
16777;BME280;8505;49.456;8.164;2022-11-13T07:38:30;100612.06;;;2.03;96.73
16777;BME280;8505;49.456;8.164;2022-11-13T07:40:58;100606.00;;;2.02;96.68
16777;BME280;8505;49.456;8.164;2022-11-13T07:43:25;100606.34;;;2.11;96.79
16777;BME280;8505;49.456;8.164;2022-11-13T07:45:56;100608.31;;;2.07;96.81
16777;BME280;8505;49.456;8.164;2022-11-13T07:48:24;100609.03;;;2.23;96.96
16777;BME280;8505;49.456;8.164;2022-11-13T07:50:54;100606.63;;;2.06;96.72
16777;BME280;8505;49.456;8.164;2022-11-13T07:53:22;100610.00;;;2.08;97.38
16777;BME280;8505;49.456;8.164;2022-11-13T07:55:49;100606.81;;;2.17;97.26
16777;BME280;8505;49.456;8.164;2022-11-13T07:58:17;100612.84;;;2.32;96.96
16777;BME280;8505;49.456;8.164;2022-11-13T08:00:44;100607.91;;;2.27;96.94
16777;BME280;8505;49.456;8.164;2022-11-13T08:03:15;100614.53;;;2.33;96.74
16777;BME280;8505;49.456;8.164;2022-11-13T08:05:43;100615.25;;;2.35;96.51
16777;BME280;8505;49.456;8.164;2022-11-13T08:08:12;100620.75;;;2.44;96.89
16777;BME280;8505;49.456;8.164;2022-11-13T08:10:40;100621.59;;;2.45;96.42
16777;BME280;8505;49.456;8.164;2022-11-13T08:13:09;100605.09;;;2.57;96.35
16777;BME280;8505;49.456;8.164;2022-11-13T08:15:37;100599.56;;;2.62;96.17
16777;BME280;8505;49.456;8.164;2022-11-13T08:18:05;100611.91;;;2.60;95.99
16777;BME280;8505;49.456;8.164;2022-11-13T08:20:34;100602.31;;;2.73;96.23
16777;BME280;8505;49.456;8.164;2022-11-13T08:23:03;100607.16;;;2.79;96.08
16777;BME280;8505;49.456;8.164;2022-11-13T08:25:32;100605.31;;;2.94;95.27
16777;BME280;8505;49.456;8.164;2022-11-13T08:28:00;100599.03;;;3.09;94.89
16777;BME280;8505;49.456;8.164;2022-11-13T08:30:28;100598.44;;;3.05;94.88
16777;BME280;8505;49.456;8.164;2022-11-13T08:32:55;100600.09;;;3.06;95.14
16777;BME280;8505;49.456;8.164;2022-11-13T08:35:23;100601.78;;;3.07;94.64
16777;BME280;8505;49.456;8.164;2022-11-13T08:38:00;100588.50;;;3.23;95.12
16777;BME280;8505;49.456;8.164;2022-11-13T08:40:28;100585.88;;;3.36;94.36
16777;BME280;8505;49.456;8.164;2022-11-13T08:42:57;100581.16;;;3.15;94.76
16777;BME280;8505;49.456;8.164;2022-11-13T08:45:25;100585.78;;;3.24;95.13
16777;BME280;8505;49.456;8.164;2022-11-13T08:47:53;100570.19;;;3.36;94.69
16777;BME280;8505;49.456;8.164;2022-11-13T08:50:20;100571.88;;;3.49;95.07
16777;BME280;8505;49.456;8.164;2022-11-13T08:52:52;100562.41;;;3.59;94.12
16777;BME280;8505;49.456;8.164;2022-11-13T08:55:22;100565.66;;;3.76;93.95
16777;BME280;8505;49.456;8.164;2022-11-13T08:57:50;100564.91;;;3.86;93.57
16777;BME280;8505;49.456;8.164;2022-11-13T09:00:19;100556.59;;;3.92;93.78
16777;BME280;8505;49.456;8.164;2022-11-13T09:02:52;100560.47;;;3.99;93.93
16777;BME280;8505;49.456;8.164;2022-11-13T09:05:20;100560.44;;;4.12;93.71
16777;BME280;8505;49.456;8.164;2022-11-13T09:07:48;100554.91;;;4.28;93.08
16777;BME280;8505;49.456;8.164;2022-11-13T09:10:16;100550.59;;;4.51;93.21
16777;BME280;8505;49.456;8.164;2022-11-13T09:12:46;100549.81;;;4.61;92.82
16777;BME280;8505;49.456;8.164;2022-11-13T09:15:13;100552.38;;;4.74;92.06
16777;BME280;8505;49.456;8.164;2022-11-13T09:17:48;100555.41;;;4.92;92.36
16777;BME280;8505;49.456;8.164;2022-11-13T09:20:16;100543.88;;;5.16;91.67
16777;BME280;8505;49.456;8.164;2022-11-13T09:22:55;100550.00;;;5.50;91.08
16777;BME280;8505;49.456;8.164;2022-11-13T09:25:23;100544.41;;;5.66;90.55
16777;BME280;8505;49.456;8.164;2022-11-13T09:27:53;100540.09;;;5.87;89.85
16777;BME280;8505;49.456;8.164;2022-11-13T09:30:21;100534.69;;;6.00;89.07
16777;BME280;8505;49.456;8.164;2022-11-13T09:32:52;100535.16;;;6.16;89.11
16777;BME280;8505;49.456;8.164;2022-11-13T09:35:20;100543.81;;;6.39;88.40
16777;BME280;8505;49.456;8.164;2022-11-13T09:38:00;100538.84;;;6.57;88.87
16777;BME280;8505;49.456;8.164;2022-11-13T09:40:40;100531.03;;;6.87;87.47
16777;BME280;8505;49.456;8.164;2022-11-13T09:43:21;100529.94;;;7.10;87.25
16777;BME280;8505;49.456;8.164;2022-11-13T09:45:53;100521.28;;;7.29;87.26
16777;BME280;8505;49.456;8.164;2022-11-13T09:48:26;100513.78;;;7.55;86.13
16777;BME280;8505;49.456;8.164;2022-11-13T09:50:58;100516.78;;;7.71;85.33
16777;BME280;8505;49.456;8.164;2022-11-13T09:53:28;100505.31;;;7.91;85.08
16777;BME280;8505;49.456;8.164;2022-11-13T09:56:03;100499.81;;;8.13;84.27
16777;BME280;8505;49.456;8.164;2022-11-13T09:58:44;100492.34;;;8.47;82.88
16777;BME280;8505;49.456;8.164;2022-11-13T10:01:16;100495.41;;;8.52;83.61
16777;BME280;8505;49.456;8.164;2022-11-13T10:03:53;100488.56;;;8.88;82.68
16777;BME280;8505;49.456;8.164;2022-11-13T10:06:39;100479.84;;;8.69;82.73
16777;BME280;8505;49.456;8.164;2022-11-13T10:09:21;100471.97;;;9.43;80.04
16777;BME280;8505;49.456;8.164;2022-11-13T10:11:54;100471.56;;;9.92;78.15
16777;BME280;8505;49.456;8.164;2022-11-13T10:14:27;100456.31;;;10.57;74.35
16777;BME280;8505;49.456;8.164;2022-11-13T10:16:59;100453.16;;;11.05;73.53
16777;BME280;8505;49.456;8.164;2022-11-13T10:19:33;100438.47;;;11.45;72.97
16777;BME280;8505;49.456;8.164;2022-11-13T10:22:08;100426.34;;;11.92;68.20
16777;BME280;8505;49.456;8.164;2022-11-13T10:25:03;100416.59;;;13.45;64.26
16777;BME280;8505;49.456;8.164;2022-11-13T10:27:31;100414.94;;;14.21;59.99
16777;BME280;8505;49.456;8.164;2022-11-13T10:30:00;100394.19;;;14.91;60.89
16777;BME280;8505;49.456;8.164;2022-11-13T10:32:31;100400.09;;;15.30;58.24
16777;BME280;8505;49.456;8.164;2022-11-13T10:35:00;100394.69;;;15.96;54.26
16777;BME280;8505;49.456;8.164;2022-11-13T10:37:45;100392.06;;;16.66;52.26
16777;BME280;8505;49.456;8.164;2022-11-13T10:40:23;100383.50;;;17.12;50.11
16777;BME280;8505;49.456;8.164;2022-11-13T10:42:51;100382.28;;;17.14;49.79
16777;BME280;8505;49.456;8.164;2022-11-13T10:45:21;100375.72;;;17.23;49.55
16777;BME280;8505;49.456;8.164;2022-11-13T10:47:50;100378.94;;;18.21;47.05
16777;BME280;8505;49.456;8.164;2022-11-13T10:50:33;100370.91;;;18.60;45.64
16777;BME280;8505;49.456;8.164;2022-11-13T10:53:01;100366.69;;;19.10;45.14
16777;BME280;8505;49.456;8.164;2022-11-13T10:55:37;100356.44;;;18.54;45.66
16777;BME280;8505;49.456;8.164;2022-11-13T10:58:11;100347.97;;;19.42;44.92
16777;BME280;8505;49.456;8.164;2022-11-13T11:00:41;100351.84;;;19.59;43.85
16777;BME280;8505;49.456;8.164;2022-11-13T11:03:14;100346.75;;;20.38;42.18
16777;BME280;8505;49.456;8.164;2022-11-13T11:05:51;100343.97;;;20.20;41.18
16777;BME280;8505;49.456;8.164;2022-11-13T11:08:29;100338.53;;;21.49;39.37
16777;BME280;8505;49.456;8.164;2022-11-13T11:10:59;100328.28;;;21.69;39.16
16777;BME280;8505;49.456;8.164;2022-11-13T11:13:45;100329.06;;;19.99;39.86
16777;BME280;8505;49.456;8.164;2022-11-13T11:16:18;100320.13;;;19.74;42.40
16777;BME280;8505;49.456;8.164;2022-11-13T11:18:51;100319.00;;;20.13;41.70
16777;BME280;8505;49.456;8.164;2022-11-13T11:21:24;100320.00;;;19.62;41.91
16777;BME280;8505;49.456;8.164;2022-11-13T11:23:56;100319.69;;;18.81;44.49
16777;BME280;8505;49.456;8.164;2022-11-13T11:26:30;100318.63;;;20.59;41.05
16777;BME280;8505;49.456;8.164;2022-11-13T11:29:13;100314.03;;;20.16;42.21
16777;BME280;8505;49.456;8.164;2022-11-13T11:31:49;100316.34;;;18.99;43.87
16777;BME280;8505;49.456;8.164;2022-11-13T11:34:24;100324.75;;;19.09;44.41
16777;BME280;8505;49.456;8.164;2022-11-13T11:36:59;100320.53;;;18.75;45.79
16777;BME280;8505;49.456;8.164;2022-11-13T11:39:34;100309.59;;;19.28;45.14
16777;BME280;8505;49.456;8.164;2022-11-13T11:42:12;100307.59;;;19.93;43.06
16777;BME280;8505;49.456;8.164;2022-11-13T11:44:59;100307.72;;;18.71;44.89
16777;BME280;8505;49.456;8.164;2022-11-13T11:47:31;100305.25;;;18.82;45.79
16777;BME280;8505;49.456;8.164;2022-11-13T11:50:00;100296.22;;;17.98;47.06
16777;BME280;8505;49.456;8.164;2022-11-13T11:52:42;100292.03;;;18.74;45.45
16777;BME280;8505;49.456;8.164;2022-11-13T11:55:33;100282.41;;;19.87;44.17
16777;BME280;8505;49.456;8.164;2022-11-13T11:58:14;100284.53;;;20.03;41.44
16777;BME280;8505;49.456;8.164;2022-11-13T12:00:48;100284.41;;;19.67;43.78
16777;BME280;8505;49.456;8.164;2022-11-13T12:06:38;100283.66;;;19.09;45.74
16777;BME280;8505;49.456;8.164;2022-11-13T12:09:17;100270.19;;;18.51;46.68
16777;BME280;8505;49.456;8.164;2022-11-13T12:11:52;100280.94;;;18.57;46.04
16777;BME280;8505;49.456;8.164;2022-11-13T12:14:28;100262.00;;;19.48;46.51
16777;BME280;8505;49.456;8.164;2022-11-13T12:17:10;100257.03;;;20.01;43.09
16777;BME280;8505;49.456;8.164;2022-11-13T12:19:50;100259.50;;;18.57;47.88
16777;BME280;8505;49.456;8.164;2022-11-13T12:22:27;100245.47;;;18.29;46.58
16777;BME280;8505;49.456;8.164;2022-11-13T12:25:07;100248.31;;;18.61;47.18
16777;BME280;8505;49.456;8.164;2022-11-13T12:27:42;100236.44;;;20.75;42.97
16777;BME280;8505;49.456;8.164;2022-11-13T12:30:16;100230.41;;;21.27;43.28
16777;BME280;8505;49.456;8.164;2022-11-13T12:33:03;100232.13;;;20.92;41.08
16777;BME280;8505;49.456;8.164;2022-11-13T12:35:35;100219.91;;;18.97;44.95
16777;BME280;8505;49.456;8.164;2022-11-13T12:38:11;100210.88;;;19.61;44.49
16777;BME280;8505;49.456;8.164;2022-11-13T12:40:46;100206.56;;;18.78;45.76
16777;BME280;8505;49.456;8.164;2022-11-13T12:43:28;100198.06;;;18.10;47.52
16777;BME280;8505;49.456;8.164;2022-11-13T12:46:04;100183.22;;;18.14;45.73
16777;BME280;8505;49.456;8.164;2022-11-13T12:48:35;100179.06;;;18.31;46.39
16777;BME280;8505;49.456;8.164;2022-11-13T12:51:06;100168.28;;;18.44;45.29
16777;BME280;8505;49.456;8.164;2022-11-13T12:53:47;100163.47;;;17.82;48.89
16777;BME280;8505;49.456;8.164;2022-11-13T12:56:30;100157.69;;;17.85;48.10
16777;BME280;8505;49.456;8.164;2022-11-13T12:58:59;100164.00;;;16.98;50.28
16777;BME280;8505;49.456;8.164;2022-11-13T13:01:53;100152.50;;;17.97;47.42
16777;BME280;8505;49.456;8.164;2022-11-13T13:04:33;100146.91;;;18.18;47.57
16777;BME280;8505;49.456;8.164;2022-11-13T13:07:18;100135.16;;;18.26;45.49
16777;BME280;8505;49.456;8.164;2022-11-13T13:09:57;100126.69;;;19.11;45.28
16777;BME280;8505;49.456;8.164;2022-11-13T13:12:39;100131.72;;;20.00;43.63
16777;BME280;8505;49.456;8.164;2022-11-13T13:15:26;100115.22;;;18.97;44.41
16777;BME280;8505;49.456;8.164;2022-11-13T13:18:09;100105.97;;;18.49;45.76
16777;BME280;8505;49.456;8.164;2022-11-13T13:20:39;100107.03;;;18.86;44.71
16777;BME280;8505;49.456;8.164;2022-11-13T13:23:11;100106.16;;;19.23;44.25
16777;BME280;8505;49.456;8.164;2022-11-13T13:25:39;100100.84;;;17.63;47.97
16777;BME280;8505;49.456;8.164;2022-11-13T13:28:18;100103.91;;;17.40;47.21
16777;BME280;8505;49.456;8.164;2022-11-13T13:30:55;100108.16;;;18.14;47.33
16777;BME280;8505;49.456;8.164;2022-11-13T13:33:32;100116.56;;;18.31;46.44